createdAt,value
2022-08-21T00:03:22.777Z,13036
2022-08-21T00:08:35.709Z,13056
2022-08-21T00:13:47.571Z,13071
2022-08-21T00:19:00.444Z,12923
2022-08-21T00:24:13.481Z,12943
2022-08-21T00:29:26.221Z,12971
2022-08-21T00:34:39.219Z,12963
2022-08-21T00:39:52.084Z,12970
2022-08-21T00:45:05.026Z,12972
2022-08-21T00:50:22.457Z,12913
2022-08-21T00:55:35.682Z,12978
2022-08-21T01:00:48.754Z,12935
2022-08-21T01:06:01.659Z,12896
2022-08-21T01:11:14.422Z,12944
2022-08-21T01:16:27.331Z,12915
2022-08-21T01:21:40.174Z,12902
2022-08-21T01:26:53.169Z,12932
2022-08-21T01:32:05.909Z,12942
2022-08-21T01:37:18.715Z,12920
2022-08-21T01:42:31.489Z,12910
2022-08-21T02:18:49.341Z,12889
2022-08-21T02:29:12.911Z,12898
2022-08-21T02:34:29.717Z,12890
2022-08-21T02:39:42.475Z,12903
2022-08-21T02:44:55.309Z,12910
2022-08-21T02:50:08.154Z,12925
2022-08-21T02:55:20.974Z,12902
2022-08-21T03:10:55.543Z,12898
2022-08-21T03:21:19.335Z,12903
2022-08-21T03:26:32.612Z,12905
2022-08-21T05:30:56.545Z,12887
2022-08-21T05:36:10.144Z,12943
2022-08-21T05:41:23.065Z,12908
2022-08-21T05:46:36.190Z,12923
2022-08-21T05:51:49.076Z,12900
2022-08-21T05:57:02.219Z,12928
2022-08-21T06:02:15.267Z,12968
2022-08-21T06:07:27.354Z,13056
2022-08-21T06:12:42.748Z,13240
2022-08-21T06:17:54.377Z,13272
2022-08-21T06:23:06.677Z,13324
2022-08-21T06:28:19.621Z,13269
2022-08-21T06:33:33.235Z,13399
2022-08-21T06:38:52.128Z,13301
2022-08-21T06:44:04.458Z,13458
2022-08-21T06:49:21.941Z,13309
2022-08-21T06:54:39.103Z,13438
2022-08-21T06:59:52.153Z,13439
2022-08-21T07:05:18.792Z,13406
2022-08-21T07:10:29.154Z,13368
2022-08-21T07:15:41.467Z,13344
2022-08-21T07:20:54.915Z,13462
2022-08-21T07:26:07.591Z,13330
2022-08-21T07:31:21.013Z,13450
2022-08-21T07:36:35.482Z,13313
2022-08-21T07:41:48.127Z,13437
2022-08-21T07:47:00.617Z,13319
2022-08-21T07:52:14.093Z,13517
2022-08-21T07:57:27.767Z,13408
2022-08-21T08:02:41.257Z,13408
2022-08-21T08:07:54.577Z,13467
2022-08-21T08:13:10.820Z,13471
2022-08-21T08:18:23.507Z,13515
2022-08-21T08:23:36.956Z,13537
2022-08-21T08:28:49.643Z,13497
2022-08-21T08:34:02.267Z,13605
2022-08-21T08:39:30.025Z,13571
2022-08-21T08:44:40.357Z,13533
2022-08-21T08:49:52.824Z,13523
2022-08-21T08:55:05.437Z,13513
2022-08-21T09:00:18.208Z,13377
2022-08-21T09:05:30.777Z,13527
2022-08-21T09:10:43.126Z,13566
2022-08-21T09:15:55.816Z,13482
2022-08-21T09:21:08.317Z,13500
2022-08-21T09:26:21.350Z,13507
2022-08-21T09:31:34.543Z,13634
2022-08-21T09:36:55.250Z,13419
2022-08-21T09:42:09.706Z,13397
2022-08-21T09:47:27.053Z,13314
2022-08-21T09:52:41.764Z,13423
2022-08-21T09:57:54.470Z,13410
2022-08-21T10:03:07.035Z,13115
2022-08-21T10:08:19.865Z,13647
2022-08-21T10:13:32.628Z,13601
2022-08-21T10:18:45.393Z,13586
2022-08-21T10:23:58.213Z,13483
2022-08-21T10:29:11.121Z,13563
2022-08-21T10:34:24.303Z,13515
2022-08-21T10:39:37.594Z,13427
2022-08-21T10:44:50.366Z,13295
2022-08-21T10:50:03.180Z,13495
2022-08-21T10:55:15.714Z,13322
2022-08-21T11:00:28.269Z,13133
2022-08-21T11:05:40.693Z,13585
2022-08-21T11:11:00.517Z,13320
2022-08-21T11:16:17.733Z,13477
2022-08-21T11:21:29.996Z,13337
2022-08-21T11:26:42.633Z,13901
2022-08-21T11:31:55.645Z,14040
2022-08-21T11:37:08.832Z,13854
2022-08-21T11:47:32.157Z,13765
2022-08-21T11:52:45.137Z,13952
2022-08-21T11:57:58.074Z,13963
2022-08-21T12:03:11.222Z,13513
2022-08-21T12:18:56.376Z,13828
2022-08-21T12:24:07.100Z,13843
2022-08-21T12:29:20.402Z,13512
2022-08-21T12:44:54.556Z,13391
2022-08-21T12:50:07.083Z,13518
2022-08-21T12:55:19.911Z,13052
2022-08-21T13:00:32.068Z,14194
2022-08-21T13:05:45.267Z,12917
2022-08-21T13:10:59.257Z,13389
2022-08-21T13:16:23.728Z,13290
2022-08-21T13:21:37.257Z,13421
2022-08-21T13:26:49.880Z,13585
2022-08-21T13:32:02.430Z,13392
2022-08-21T13:37:15.006Z,12917
2022-08-21T13:52:51.471Z,13122
2022-08-21T13:58:04.048Z,13220
2022-08-21T14:03:16.627Z,13151
2022-08-21T14:08:30.656Z,13284
2022-08-21T14:13:43.081Z,12950
2022-08-21T14:24:05.628Z,12938
2022-08-21T14:29:18.290Z,13256
2022-08-21T14:34:36.201Z,13139
2022-08-21T14:39:49.884Z,13118
2022-08-21T14:45:02.383Z,13258
2022-08-21T14:50:15.022Z,13326
2022-08-21T14:55:27.475Z,13273
2022-08-21T15:00:40.181Z,13417
2022-08-21T15:05:52.782Z,12975
2022-08-21T15:11:20.488Z,13153
2022-08-21T15:27:24.193Z,13076
2022-08-21T15:32:36.435Z,12906
2022-08-21T15:42:59.201Z,13118
2022-08-21T15:48:12.039Z,13118
2022-08-21T15:53:24.573Z,13096
2022-08-21T15:58:36.763Z,13124
2022-08-21T16:03:49.222Z,12960
2022-08-21T16:09:01.470Z,13202
2022-08-21T16:14:13.715Z,13029
2022-08-21T16:19:26.044Z,13176
2022-08-21T16:24:40.571Z,13231
2022-08-21T16:29:52.813Z,13233
2022-08-21T16:35:05.130Z,13032
2022-08-21T16:40:17.859Z,12929
2022-08-21T16:45:33.567Z,13056
2022-08-21T16:50:51.205Z,13249
2022-08-21T16:56:07.721Z,13140
2022-08-21T17:01:20.205Z,13091
2022-08-21T17:06:32.778Z,13162
2022-08-21T17:11:45.157Z,13062
2022-08-21T17:16:57.618Z,12891
2022-08-21T17:22:10.019Z,13010
2022-08-21T17:37:42.412Z,13188
2022-08-21T17:42:54.536Z,13126
2022-08-21T17:48:06.811Z,13049
2022-08-21T17:58:28.919Z,13009
2022-08-21T18:03:40.991Z,12939
2022-08-21T18:08:53.138Z,13072
2022-08-21T18:14:08.264Z,13076
2022-08-21T18:19:19.731Z,13153
2022-08-21T18:24:31.883Z,13104
2022-08-21T18:29:47.996Z,13052
2022-08-21T18:34:59.250Z,13005
2022-08-21T18:40:11.436Z,13095
2022-08-21T18:45:23.884Z,13047
2022-08-21T18:50:36.142Z,13004
2022-08-21T18:55:49.458Z,13171
2022-08-21T19:01:06.477Z,13136
2022-08-21T19:06:22.140Z,13122
2022-08-21T19:11:35.338Z,13095
2022-08-21T19:16:47.961Z,13107
2022-08-21T19:22:00.340Z,13119
2022-08-21T19:27:13.727Z,13130
2022-08-21T19:32:27.364Z,13095
2022-08-21T19:37:40.556Z,13159
2022-08-21T19:42:54.026Z,13090
2022-08-21T19:48:06.670Z,13123
2022-08-21T19:53:19.320Z,13005
2022-08-21T19:58:31.756Z,13177
2022-08-21T20:03:44.489Z,13132
2022-08-21T20:09:08.734Z,13122
2022-08-21T20:14:20.441Z,13022
2022-08-21T20:19:32.906Z,13166
2022-08-21T20:24:45.932Z,13106
2022-08-21T20:29:58.963Z,13062
2022-08-21T20:35:14.123Z,13117
2022-08-21T20:40:33.139Z,13107
2022-08-21T20:45:45.280Z,13124
2022-08-21T20:50:57.647Z,13113
2022-08-21T20:56:15.893Z,13063
2022-08-21T21:01:32.932Z,13100
2022-08-21T21:06:52.488Z,13078
2022-08-21T21:12:08.844Z,13074
2022-08-21T21:17:29.015Z,13057
2022-08-21T21:22:43.571Z,13061
2022-08-21T21:27:55.281Z,13115
2022-08-21T21:33:08.237Z,13085
2022-08-21T21:38:22.032Z,13096
2022-08-21T21:43:34.506Z,13047
2022-08-21T21:48:47.785Z,13096
2022-08-21T21:54:00.423Z,13067
2022-08-21T21:59:13.020Z,13097
2022-08-21T22:04:28.768Z,12964
2022-08-21T22:09:42.165Z,13127
2022-08-21T22:14:55.599Z,13099
2022-08-21T22:20:12.622Z,13111
2022-08-21T22:25:28.923Z,13079
2022-08-21T22:30:42.062Z,13081
2022-08-21T22:31:18.661Z,13027
2022-08-21T22:36:31.287Z,13008
2022-08-21T22:41:43.471Z,13045
2022-08-21T22:46:57.426Z,13047
2022-08-21T22:52:10.964Z,13050
2022-08-21T22:57:24.957Z,13041
2022-08-21T23:02:37.717Z,13077
2022-08-21T23:07:50.626Z,12963
2022-08-21T23:13:09.921Z,13078
2022-08-21T23:18:22.509Z,13068
2022-08-21T23:23:36.479Z,13023
2022-08-21T23:28:51.742Z,12986
2022-08-21T23:34:06.479Z,13073
2022-08-21T23:39:20.699Z,13040
2022-08-21T23:44:32.033Z,12916
2022-08-21T23:49:45.112Z,13079
2022-08-21T23:54:57.334Z,13014
